Time;durP1;ratioP1;P1;durP2;ratioP2;P2;SDS_P1;SDS_P2;PMS_P1;PMS_P2;Temp;Humidity;BMP_temperature;BMP_pressure;BME280_temperature;BME280_humidity;BME280_pressure;Samples;Min_cycle;Max_cycle;Signal;HPM_P1;HPM_P2
2023/06/21 00:00:37;;;;;;;4.50;3.35;;;;;;;27.25;48.74;100973.06;4954778;28;20089;-61
2023/06/21 00:03:04;;;;;;;6.65;2.85;;;;;;;27.24;48.65;100971.38;4954574;28;20036;-62
2023/06/21 00:05:30;;;;;;;8.63;2.85;;;;;;;27.20;48.18;100976.50;4953401;28;20415;-61
2023/06/21 00:07:55;;;;;;;5.25;3.20;;;;;;;27.17;48.07;100974.22;4953577;28;20048;-61
2023/06/21 00:10:23;;;;;;;5.18;3.10;;;;;;;27.17;48.29;100983.31;4954902;28;20036;-62
2023/06/21 00:12:53;;;;;;;5.28;3.50;;;;;;;27.14;48.50;100978.28;4938050;29;20039;-61
2023/06/21 00:15:19;;;;;;;5.10;2.67;;;;;;;27.13;48.16;100984.88;4970010;28;20031;-61
2023/06/21 00:17:45;;;;;;;5.40;2.75;;;;;;;27.09;48.79;100982.81;4953391;28;20044;-61
2023/06/21 00:20:11;;;;;;;5.63;2.97;;;;;;;27.06;48.65;100981.38;4953661;28;20043;-63
2023/06/21 00:22:37;;;;;;;5.53;2.75;;;;;;;27.03;47.91;100983.72;4953330;28;20031;-63
2023/06/21 00:25:04;;;;;;;5.03;2.55;;;;;;;26.99;47.94;100982.53;4954406;28;20114;-62
2023/06/21 00:27:29;;;;;;;5.30;3.03;;;;;;;26.95;47.99;100984.91;4954626;28;20102;-62
2023/06/21 00:29:55;;;;;;;7.07;3.20;;;;;;;26.89;48.08;100988.59;4951763;28;20064;-63
2023/06/21 00:32:20;;;;;;;9.65;3.45;;;;;;;26.87;48.04;100982.47;4953167;28;20039;-62
2023/06/21 00:34:47;;;;;;;7.80;3.10;;;;;;;26.84;48.37;100980.19;4953111;28;20059;-63
2023/06/21 00:37:13;;;;;;;8.57;3.80;;;;;;;26.84;48.25;100971.94;4937624;29;20441;-63
2023/06/21 00:39:38;;;;;;;7.28;3.67;;;;;;;26.82;48.74;100982.34;4953174;28;20447;-63
2023/06/21 00:42:05;;;;;;;6.53;3.63;;;;;;;26.81;48.20;100982.56;4953181;28;20031;-62
2023/06/21 00:44:30;;;;;;;11.95;3.72;;;;;;;26.79;48.39;100981.97;4937212;29;20118;-63
2023/06/21 00:46:56;;;;;;;13.63;4.25;;;;;;;26.80;48.77;100998.22;4949902;28;20459;-61
2023/06/21 00:49:21;;;;;;;6.93;3.97;;;;;;;26.80;48.65;100998.22;4933747;29;20083;-62
2023/06/21 00:51:47;;;;;;;6.05;3.72;;;;;;;26.79;48.97;101009.44;4952702;28;20038;-61
2023/06/21 00:54:16;;;;;;;8.27;4.25;;;;;;;26.80;48.67;101020.19;4955949;28;20038;-62
2023/06/21 00:56:43;;;;;;;6.55;3.60;;;;;;;26.79;48.72;101013.03;4957576;28;20036;-62
2023/06/21 00:59:09;;;;;;;6.60;3.58;;;;;;;26.77;48.60;101009.66;4957528;28;20090;-62
2023/06/21 01:01:36;;;;;;;6.82;3.83;;;;;;;26.79;48.19;101014.94;4957642;28;20043;-62
2023/06/21 01:04:01;;;;;;;8.60;4.40;;;;;;;26.78;48.48;101011.34;4953114;28;20451;-62
2023/06/21 01:06:48;;;;;;;7.18;3.78;;;;;;;26.77;48.40;101006.06;4971872;28;20039;-62
2023/06/21 01:09:38;;;;;;;9.13;4.15;;;;;;;26.74;48.59;101009.28;4948473;28;20039;-61
2023/06/21 01:12:40;;;;;;;9.32;4.00;;;;;;;26.69;48.63;101007.19;4957498;28;20606;-62
2023/06/21 01:15:42;;;;;;;7.78;3.83;;;;;;;26.65;48.88;101006.00;4957265;28;20082;-64
2023/06/21 01:18:10;;;;;;;8.27;4.10;;;;;;;26.62;48.85;101011.97;4972107;28;20047;-63
2023/06/21 01:20:36;;;;;;;8.50;3.38;;;;;;;26.58;48.73;101021.72;4956268;28;20031;-63
2023/06/21 01:23:32;;;;;;;8.45;3.40;;;;;;;26.55;48.73;101028.50;4972198;28;20043;-61
2023/06/21 01:26:11;;;;;;;7.55;3.55;;;;;;;26.50;48.40;101031.09;4957077;28;20039;-62
2023/06/21 01:29:00;;;;;;;10.40;4.20;;;;;;;26.46;49.05;101024.41;4956078;28;20039;-62
2023/06/21 01:31:26;;;;;;;6.97;3.53;;;;;;;26.43;48.57;101024.88;4956941;28;20395;-62
2023/06/21 01:33:51;;;;;;;9.52;4.20;;;;;;;26.39;48.89;101036.53;4971896;28;20044;-61
2023/06/21 01:36:18;;;;;;;10.77;4.30;;;;;;;26.37;48.73;101038.66;4955975;28;20510;-62
2023/06/21 01:38:44;;;;;;;6.72;3.65;;;;;;;26.37;48.97;101042.25;4955099;28;20107;-61
2023/06/21 01:41:12;;;;;;;8.98;4.40;;;;;;;26.37;48.85;101052.41;4971662;28;20487;-63
2023/06/21 01:43:38;;;;;;;8.20;4.55;;;;;;;26.36;49.11;101056.19;4955664;28;20495;-61
2023/06/21 01:46:04;;;;;;;9.88;4.43;;;;;;;26.33;49.16;101048.41;4971676;28;20043;-61
2023/06/21 01:48:31;;;;;;;7.43;3.78;;;;;;;26.32;49.11;101055.00;4971653;28;20035;-61
2023/06/21 01:50:57;;;;;;;5.88;3.83;;;;;;;26.29;49.08;101060.94;4955533;28;20407;-62
2023/06/21 01:53:24;;;;;;;6.35;3.92;;;;;;;26.28;49.12;101065.59;4955427;28;20066;-63
2023/06/21 01:55:50;;;;;;;7.78;4.60;;;;;;;26.27;49.32;101063.91;4955655;28;20042;-62
2023/06/21 01:58:16;;;;;;;8.15;4.03;;;;;;;26.29;49.63;101077.41;4971534;28;20035;-62
2023/06/21 02:00:43;;;;;;;6.43;4.05;;;;;;;26.28;49.40;101072.97;4955601;28;20035;-61
2023/06/21 02:03:10;;;;;;;6.90;3.45;;;;;;;26.30;49.56;101084.59;4955667;28;20035;-62
2023/06/21 02:05:35;;;;;;;7.50;4.00;;;;;;;26.30;49.51;101068.94;4954996;28;20494;-62
2023/06/21 02:08:04;;;;;;;11.93;4.70;;;;;;;26.32;48.96;101071.47;4955962;28;20045;-62
2023/06/21 02:10:30;;;;;;;7.95;4.45;;;;;;;26.32;49.48;101080.56;4955519;28;20042;-62
2023/06/21 02:12:56;;;;;;;6.35;4.13;;;;;;;26.32;49.25;101082.47;4938979;29;20039;-62
2023/06/21 02:15:23;;;;;;;9.75;4.28;;;;;;;26.32;49.75;101093.44;4955092;28;20051;-62
2023/06/21 02:17:50;;;;;;;9.70;4.28;;;;;;;26.32;49.68;101077.81;4955083;28;20087;-62
2023/06/21 02:20:16;;;;;;;7.45;3.95;;;;;;;26.34;49.41;101083.06;4954995;28;20038;-62
2023/06/21 02:22:42;;;;;;;7.80;4.55;;;;;;;26.38;49.28;101087.06;4954905;28;20035;-62
2023/06/21 02:25:09;;;;;;;11.45;3.95;;;;;;;26.40;49.35;101084.91;4970926;28;20039;-62
2023/06/21 02:27:35;;;;;;;11.20;3.92;;;;;;;26.44;49.90;101083.38;4954763;28;20502;-61
2023/06/21 02:30:00;;;;;;;7.93;3.90;;;;;;;26.46;49.79;101084.88;4954586;28;20035;-62
2023/06/21 02:32:25;;;;;;;7.57;3.88;;;;;;;26.49;49.70;101083.56;4955830;28;20042;-61
2023/06/21 02:34:51;;;;;;;6.28;3.85;;;;;;;26.53;49.82;101084.78;4970790;28;20534;-62
2023/06/21 02:37:16;;;;;;;8.80;4.00;;;;;;;26.56;50.16;101092.56;4970814;28;20103;-63
2023/06/21 02:39:42;;;;;;;6.47;4.03;;;;;;;26.55;49.91;101099.97;4970698;28;20039;-61
2023/06/21 02:42:07;;;;;;;7.38;4.38;;;;;;;26.57;50.14;101108.00;4956026;28;20181;-62
2023/06/21 02:44:33;;;;;;;6.45;4.03;;;;;;;26.57;49.56;101102.50;4955481;28;20043;-61
2023/06/21 02:46:59;;;;;;;8.80;3.95;;;;;;;26.59;50.14;101106.69;4955684;28;20039;-61
2023/06/21 02:49:25;;;;;;;8.32;4.15;;;;;;;26.58;49.89;101102.25;4954543;28;20488;-62
2023/06/21 02:51:50;;;;;;;7.13;3.95;;;;;;;26.57;49.92;101094.25;4970662;28;20059;-62
2023/06/21 02:54:16;;;;;;;8.32;3.80;;;;;;;26.58;50.02;101099.50;4954367;28;20047;-62
2023/06/21 02:56:43;;;;;;;12.63;4.00;;;;;;;26.58;49.93;101104.16;4954657;28;20039;-62
2023/06/21 02:59:08;;;;;;;7.82;3.97;;;;;;;26.56;49.72;101109.91;4954294;28;20046;-62
2023/06/21 03:01:34;;;;;;;6.30;3.47;;;;;;;26.50;49.79;101102.56;4955271;28;20035;-62
2023/06/21 03:03:59;;;;;;;9.07;3.45;;;;;;;26.49;49.76;101103.63;4955237;28;20380;-62
2023/06/21 03:06:25;;;;;;;8.32;3.88;;;;;;;26.46;49.79;101114.25;4945303;28;20178;-62
2023/06/21 03:08:51;;;;;;;7.70;3.88;;;;;;;26.44;49.57;101125.44;4954836;28;20400;-62
2023/06/21 03:11:17;;;;;;;7.93;4.10;;;;;;;26.39;49.50;101127.19;4953091;28;20112;-62
2023/06/21 03:13:43;;;;;;;7.63;4.10;;;;;;;26.38;49.62;101133.78;4954898;28;20130;-62
2023/06/21 03:16:08;;;;;;;10.18;4.10;;;;;;;26.33;50.30;101133.56;4954628;28;20147;-62
2023/06/21 03:18:34;;;;;;;9.35;4.30;;;;;;;26.28;49.88;101126.03;4954721;28;20503;-61
2023/06/21 03:21:02;;;;;;;7.35;4.35;;;;;;;26.22;49.78;101123.31;4950480;28;20035;-61
2023/06/21 03:23:28;;;;;;;7.13;4.53;;;;;;;26.23;49.54;101141.50;4932154;29;20036;-62
2023/06/21 03:25:53;;;;;;;9.88;4.07;;;;;;;26.21;49.95;101143.63;4954746;28;20042;-62
2023/06/21 03:28:19;;;;;;;7.82;4.03;;;;;;;26.19;49.56;101137.50;4955208;28;20039;-61
2023/06/21 03:30:44;;;;;;;8.95;4.60;;;;;;;26.17;49.97;101140.47;4969892;28;20040;-61
2023/06/21 03:33:10;;;;;;;8.02;4.38;;;;;;;26.16;49.88;101138.78;4937729;28;20522;-61
2023/06/21 03:35:36;;;;;;;8.40;3.92;;;;;;;26.17;49.88;101142.38;4969538;28;20091;-61
2023/06/21 03:38:02;;;;;;;7.53;4.50;;;;;;;26.16;49.67;101137.97;4953638;28;20418;-62
2023/06/21 03:40:27;;;;;;;11.50;4.60;;;;;;;26.18;50.46;101142.19;4969704;28;20035;-62
2023/06/21 03:42:53;;;;;;;9.00;4.78;;;;;;;26.19;50.15;101140.25;4953465;28;20028;-62
2023/06/21 03:45:18;;;;;;;7.35;4.50;;;;;;;26.21;50.28;101140.88;4969689;28;20043;-62
2023/06/21 03:47:44;;;;;;;5.82;4.05;;;;;;;26.21;49.76;101143.63;4937548;28;20502;-62
2023/06/21 03:50:10;;;;;;;17.73;5.38;;;;;;;26.23;49.96;101149.75;4953588;28;20418;-62
2023/06/21 03:52:36;;;;;;;8.00;4.45;;;;;;;26.24;50.11;101151.44;4954438;28;20443;-61
2023/06/21 03:55:02;;;;;;;7.25;4.10;;;;;;;26.27;50.20;101151.00;4955172;28;20117;-62
2023/06/21 03:57:27;;;;;;;9.07;4.93;;;;;;;26.29;50.13;101148.84;4955090;28;20507;-61
2023/06/21 03:59:53;;;;;;;8.18;4.78;;;;;;;26.34;50.29;101151.75;4953905;28;20044;-62
2023/06/21 04:02:20;;;;;;;10.75;4.82;;;;;;;26.37;50.16;101146.66;4938053;28;20032;-62
2023/06/21 04:04:46;;;;;;;8.50;4.93;;;;;;;26.40;50.23;101151.72;4937636;29;20110;-61
2023/06/21 04:07:12;;;;;;;8.20;4.75;;;;;;;26.43;50.04;101150.41;4969509;28;20122;-62
2023/06/21 04:09:38;;;;;;;6.72;4.43;;;;;;;26.47;50.62;101149.72;4957299;28;20027;-62
2023/06/21 04:12:03;;;;;;;8.32;4.57;;;;;;;26.50;50.40;101153.94;4948308;28;20039;-61
2023/06/21 04:14:29;;;;;;;7.63;5.07;;;;;;;26.55;50.15;101154.09;4929500;29;20055;-62
2023/06/21 04:16:54;;;;;;;12.35;5.13;;;;;;;26.59;50.39;101155.34;4954448;28;20415;-61
2023/06/21 04:19:20;;;;;;;8.77;5.05;;;;;;;26.64;50.62;101158.22;4938284;29;20522;-61
2023/06/21 04:21:45;;;;;;;15.43;4.60;;;;;;;26.70;50.53;101146.34;4956056;28;20162;-61
2023/06/21 04:24:10;;;;;;;6.95;4.93;;;;;;;26.77;50.68;101147.13;4969208;28;20059;-62
2023/06/21 04:26:36;;;;;;;7.10;4.88;;;;;;;26.86;49.84;101156.78;4954818;28;20112;-61
2023/06/21 04:29:01;;;;;;;8.13;5.03;;;;;;;26.94;50.65;101159.22;4937632;28;20152;-62
2023/06/21 04:31:28;;;;;;;12.77;5.53;;;;;;;27.01;50.21;101157.25;4953370;29;20118;-63
2023/06/21 04:33:54;;;;;;;9.52;5.07;;;;;;;27.10;49.49;101158.63;4956848;28;20186;-62
2023/06/21 04:36:20;;;;;;;17.05;5.28;;;;;;;27.16;49.84;101163.19;4956988;28;20039;-63
2023/06/21 04:38:51;;;;;;;8.05;5.38;;;;;;;27.26;49.68;101178.31;4957403;28;20549;-61
2023/06/21 04:41:18;;;;;;;9.70;4.32;;;;;;;27.34;50.16;101176.09;4972818;28;20104;-61
2023/06/21 04:43:43;;;;;;;7.72;5.18;;;;;;;27.44;49.73;101181.97;4972779;28;20032;-62
2023/06/21 04:46:09;;;;;;;14.52;5.50;;;;;;;27.49;50.01;101179.34;4956503;28;20051;-62
2023/06/21 04:48:34;;;;;;;10.13;4.90;;;;;;;27.61;49.55;101179.41;4940643;29;20100;-63
2023/06/21 04:50:59;;;;;;;11.27;5.15;;;;;;;27.68;49.83;101177.41;4957864;28;20035;-62
2023/06/21 04:53:29;;;;;;;12.93;5.32;;;;;;;27.68;49.56;101178.25;4972570;28;20039;-61
2023/06/21 04:55:55;;;;;;;16.80;5.10;;;;;;;27.65;49.77;101178.69;4972548;28;20040;-62
2023/06/21 04:58:20;;;;;;;8.07;5.30;;;;;;;27.74;49.54;101187.47;4972357;28;20043;-62
2023/06/21 05:00:46;;;;;;;13.20;5.50;;;;;;;27.75;49.16;101190.00;4956263;28;20049;-63
2023/06/21 05:03:11;;;;;;;11.85;5.60;;;;;;;27.79;50.02;101193.13;4956287;28;20464;-62
2023/06/21 05:05:36;;;;;;;7.68;5.22;;;;;;;27.86;50.03;101195.78;4956294;28;20406;-62
2023/06/21 05:08:04;;;;;;;10.90;5.30;;;;;;;27.95;50.18;101195.22;4957411;28;20032;-62
2023/06/21 05:10:29;;;;;;;7.85;5.18;;;;;;;28.04;49.16;101181.97;4957377;28;20043;-63
2023/06/21 05:12:55;;;;;;;14.85;5.40;;;;;;;28.14;49.12;101185.84;4957400;28;20035;-62
2023/06/21 05:15:20;;;;;;;8.25;5.40;;;;;;;28.28;49.78;101190.06;4955975;28;20414;-63
2023/06/21 05:17:46;;;;;;;12.23;5.72;;;;;;;28.43;49.53;101192.38;4955981;28;20057;-61
2023/06/21 05:20:12;;;;;;;9.60;5.40;;;;;;;28.57;48.46;101215.03;4972147;28;20110;-61
2023/06/21 05:22:37;;;;;;;17.15;5.05;;;;;;;28.65;48.74;101214.72;4955894;28;20050;-62
2023/06/21 05:25:04;;;;;;;8.73;5.32;;;;;;;28.66;49.20;101213.66;4946255;28;20091;-62
2023/06/21 05:27:30;;;;;;;11.20;5.75;;;;;;;28.67;48.88;101226.38;4920872;28;20051;-62
2023/06/21 05:29:55;;;;;;;10.80;5.15;;;;;;;28.69;49.18;101224.22;4921011;28;20039;-62
2023/06/21 05:32:20;;;;;;;10.52;6.50;;;;;;;28.68;49.25;101225.28;4957069;28;20475;-62
2023/06/21 05:34:46;;;;;;;11.38;6.32;;;;;;;28.72;49.04;101230.09;4940351;28;20035;-64
2023/06/21 05:37:11;;;;;;;12.52;6.07;;;;;;;28.73;48.98;101236.44;4957772;28;20042;-64
2023/06/21 05:39:37;;;;;;;12.93;5.95;;;;;;;28.72;49.34;101246.66;4939041;28;20035;-63
2023/06/21 05:42:02;;;;;;;10.60;5.78;;;;;;;28.75;48.71;101250.84;4955879;28;20038;-63
2023/06/21 05:44:28;;;;;;;4.75;3.85;;;;;;;28.73;48.78;101247.47;4971813;28;20034;-63
2023/06/21 05:46:53;;;;;;;8.55;5.07;;;;;;;28.80;48.53;101253.72;4939770;28;20487;-61
2023/06/21 05:49:19;;;;;;;9.32;5.35;;;;;;;28.87;48.55;101254.44;4955901;28;20043;-61
2023/06/21 05:51:45;;;;;;;8.98;5.20;;;;;;;28.87;49.11;101259.94;4955899;28;20432;-61
2023/06/21 05:54:10;;;;;;;11.00;6.10;;;;;;;28.87;48.79;101251.66;4957136;28;20517;-62
2023/06/21 05:56:37;;;;;;;15.75;7.18;;;;;;;28.93;48.84;101259.00;4956983;28;20044;-62
2023/06/21 05:59:03;;;;;;;9.88;6.15;;;;;;;29.02;48.93;101260.31;4956207;28;20024;-62
2023/06/21 06:01:29;;;;;;;19.45;7.43;;;;;;;29.04;48.95;101262.84;4955653;28;20479;-62
2023/06/21 06:03:54;;;;;;;11.93;7.68;;;;;;;29.06;48.31;101263.44;4955687;28;20026;-62
2023/06/21 06:06:20;;;;;;;11.63;7.15;;;;;;;29.10;48.42;101268.25;4939497;28;20027;-61
2023/06/21 06:08:45;;;;;;;12.38;6.65;;;;;;;29.10;49.11;101259.97;4923465;28;20121;-62
2023/06/21 06:11:11;;;;;;;10.23;6.68;;;;;;;29.11;48.57;101274.59;4956640;28;20023;-62
2023/06/21 06:13:36;;;;;;;14.23;6.30;;;;;;;29.11;48.13;101280.13;4955081;28;20410;-62
2023/06/21 06:16:02;;;;;;;12.30;6.55;;;;;;;29.10;48.22;101284.81;4955148;28;20033;-62
2023/06/21 06:18:28;;;;;;;12.27;5.78;;;;;;;29.14;49.00;101277.72;4970818;28;20471;-63
2023/06/21 06:20:53;;;;;;;13.07;6.35;;;;;;;29.17;47.87;101280.00;4971316;28;20031;-62
2023/06/21 06:23:19;;;;;;;9.95;6.63;;;;;;;29.17;48.32;101282.78;4956412;28;20023;-62
2023/06/21 06:25:44;;;;;;;11.88;6.55;;;;;;;29.23;47.93;101284.56;4939122;28;20019;-63
2023/06/21 06:28:10;;;;;;;10.30;6.40;;;;;;;29.35;48.49;101290.94;4955266;28;20035;-62
2023/06/21 06:30:35;;;;;;;12.18;6.90;;;;;;;29.52;47.98;101290.19;4956172;28;20599;-62
2023/06/21 06:33:00;;;;;;;15.65;7.50;;;;;;;29.75;47.39;101293.75;4954733;28;20035;-62
2023/06/21 06:35:27;;;;;;;13.00;7.13;;;;;;;30.07;47.07;101291.41;4954816;28;20163;-63
2023/06/21 06:37:52;;;;;;;11.60;7.88;;;;;;;30.29;47.44;101292.38;4954963;28;20035;-62
2023/06/21 06:40:17;;;;;;;12.05;7.63;;;;;;;30.34;47.38;101298.03;4955881;28;20054;-62
2023/06/21 06:42:43;;;;;;;11.07;7.38;;;;;;;30.41;47.10;101307.03;4970590;28;20586;-62
2023/06/21 06:45:09;;;;;;;12.05;8.00;;;;;;;30.40;47.24;101308.09;4956044;28;20050;-62
2023/06/21 06:47:34;;;;;;;15.48;8.25;;;;;;;30.41;47.33;101307.03;4954570;28;20043;-62
2023/06/21 06:50:04;;;;;;;13.95;7.32;;;;;;;30.36;47.25;101309.66;4954870;28;20395;-62
2023/06/21 06:52:29;;;;;;;12.93;7.82;;;;;;;30.29;46.72;101299.84;4954370;28;20045;-64
2023/06/21 06:54:54;;;;;;;13.05;7.97;;;;;;;30.26;46.82;101315.03;4955961;28;20031;-62
2023/06/21 06:57:20;;;;;;;16.52;7.53;;;;;;;30.26;47.46;101320.56;4956329;28;20106;-62
2023/06/21 06:59:45;;;;;;;11.52;7.70;;;;;;;30.18;47.57;101325.63;4955348;28;20094;-62
2023/06/21 07:02:11;;;;;;;14.50;9.18;;;;;;;30.10;47.21;101332.38;4970593;28;20035;-62
2023/06/21 07:04:36;;;;;;;12.18;7.57;;;;;;;30.06;47.16;101330.34;4954557;28;20043;-62
2023/06/21 07:07:01;;;;;;;11.52;7.15;;;;;;;30.02;47.06;101330.84;4938176;28;20511;-62
2023/06/21 07:09:27;;;;;;;14.65;8.75;;;;;;;30.03;46.34;101331.69;4954479;28;20368;-62
2023/06/21 07:11:56;;;;;;;12.35;8.02;;;;;;;30.04;47.20;101333.34;4954183;28;20030;-62
2023/06/21 07:14:25;;;;;;;11.35;8.02;;;;;;;30.08;46.67;101329.00;4950952;28;20046;-62
2023/06/21 07:16:50;;;;;;;12.48;7.80;;;;;;;30.11;46.86;101339.59;4941080;28;20086;-61
2023/06/21 07:19:16;;;;;;;12.45;7.90;;;;;;;30.05;46.71;101346.09;4970641;28;20035;-62
2023/06/21 07:21:42;;;;;;;12.90;8.15;;;;;;;30.06;46.77;101347.78;4938610;29;20120;-62
2023/06/21 07:24:07;;;;;;;14.10;7.28;;;;;;;30.15;47.03;101337.19;4955658;28;20035;-62
2023/06/21 07:26:33;;;;;;;11.77;7.88;;;;;;;30.27;46.59;101347.09;4954354;28;20046;-62
2023/06/21 07:28:59;;;;;;;9.45;6.72;;;;;;;30.33;46.35;101348.88;4955553;28;20031;-62
2023/06/21 07:31:25;;;;;;;9.10;6.55;;;;;;;30.42;46.20;101358.50;4954412;28;20039;-63
2023/06/21 07:33:55;;;;;;;9.95;7.20;;;;;;;30.49;46.50;101353.63;4955630;28;20442;-63
2023/06/21 07:36:20;;;;;;;10.48;6.25;;;;;;;30.71;45.92;101350.19;4955350;28;20196;-62
2023/06/21 07:38:48;;;;;;;8.95;6.30;;;;;;;30.93;45.57;101354.75;4955385;28;20118;-62
2023/06/21 07:41:13;;;;;;;8.23;6.15;;;;;;;31.04;45.25;101353.00;4953838;28;20130;-62
2023/06/21 07:43:39;;;;;;;11.68;5.78;;;;;;;31.16;44.90;101347.41;4938077;29;20562;-62
2023/06/21 07:46:04;;;;;;;9.30;4.68;;;;;;;31.46;44.55;101348.69;4954224;28;20058;-62
2023/06/21 07:48:29;;;;;;;5.93;4.32;;;;;;;31.48;44.51;101352.09;4954111;28;20039;-62
2023/06/21 07:50:55;;;;;;;7.70;3.63;;;;;;;31.62;44.43;101352.56;4955061;28;20039;-62
2023/06/21 07:53:20;;;;;;;7.57;4.45;;;;;;;31.74;43.79;101352.44;4953594;28;20403;-62
2023/06/21 07:55:46;;;;;;;14.27;5.70;;;;;;;31.85;43.54;101357.03;4954735;28;20109;-63
2023/06/21 07:58:11;;;;;;;6.25;4.32;;;;;;;32.00;43.89;101357.22;4953589;28;20043;-62
2023/06/21 08:00:36;;;;;;;7.68;4.28;;;;;;;32.28;43.00;101357.03;4969581;28;20415;-62
2023/06/21 08:03:02;;;;;;;5.68;4.70;;;;;;;32.38;43.14;101354.41;4970946;28;20126;-63
2023/06/21 08:05:27;;;;;;;7.35;4.90;;;;;;;32.41;43.26;101362.22;4958850;28;20050;-62
2023/06/21 08:07:53;;;;;;;7.97;4.63;;;;;;;32.42;43.14;101363.03;4957493;28;20036;-62
2023/06/21 08:10:19;;;;;;;7.53;3.47;;;;;;;32.42;42.97;101363.03;4957590;28;20090;-62
2023/06/21 08:12:44;;;;;;;5.93;4.05;;;;;;;32.41;42.27;101355.81;4974059;28;20075;-62
2023/06/21 08:15:10;;;;;;;7.15;4.20;;;;;;;32.72;41.67;101364.22;4958900;28;20035;-63
2023/06/21 08:17:35;;;;;;;6.07;4.25;;;;;;;32.89;41.51;101368.84;4973278;28;20047;-62
2023/06/21 08:20:01;;;;;;;9.13;4.68;;;;;;;33.30;41.14;101365.31;4973088;28;20047;-63
2023/06/21 08:22:27;;;;;;;7.85;4.82;;;;;;;33.45;42.08;101367.38;4973098;28;20031;-63
2023/06/21 08:24:54;;;;;;;8.77;4.75;;;;;;;33.61;41.53;101367.25;4958319;28;20440;-62
2023/06/21 08:27:20;;;;;;;5.97;4.65;;;;;;;33.48;40.95;101367.66;4956901;28;20067;-63
2023/06/21 08:29:47;;;;;;;6.18;4.95;;;;;;;33.55;41.77;101367.44;4957058;28;20055;-62
2023/06/21 08:32:12;;;;;;;10.57;6.47;;;;;;;33.55;40.53;101361.88;4957165;28;20107;-62
2023/06/21 08:34:37;;;;;;;6.65;4.43;;;;;;;33.42;40.94;101373.47;4958294;28;20122;-63
2023/06/21 08:37:03;;;;;;;8.80;4.90;;;;;;;33.47;40.40;101371.56;4958276;28;20043;-62
2023/06/21 08:39:28;;;;;;;5.70;4.20;;;;;;;33.60;40.69;101373.88;4972501;28;20035;-62
2023/06/21 08:41:54;;;;;;;11.07;4.00;;;;;;;34.31;39.24;101371.50;4956792;28;20034;-62
2023/06/21 08:44:20;;;;;;;7.55;4.22;;;;;;;34.26;40.54;101379.78;4956803;28;20038;-62
2023/06/21 08:46:48;;;;;;;7.60;4.28;;;;;;;33.98;39.80;101367.97;4956475;28;20032;-63
2023/06/21 08:49:17;;;;;;;6.78;4.50;;;;;;;34.21;39.41;101374.22;4956623;28;20036;-62
2023/06/21 08:51:44;;;;;;;6.00;4.03;;;;;;;34.37;39.32;101378.72;4956554;28;20118;-62
2023/06/21 08:54:10;;;;;;;6.18;4.18;;;;;;;34.41;39.64;101385.44;4972552;28;20074;-62
2023/06/21 08:57:01;;;;;;;8.05;4.00;;;;;;;34.27;39.37;101384.25;4972573;28;20055;-62
2023/06/21 08:59:45;;;;;;;5.90;4.25;;;;;;;34.50;38.83;101386.56;4957263;28;20035;-62
2023/06/21 09:02:34;;;;;;;7.75;4.53;;;;;;;34.36;39.49;101380.69;4956171;28;20511;-62
2023/06/21 09:05:03;;;;;;;6.50;4.40;;;;;;;34.85;38.91;101378.31;4955800;28;20049;-62
2023/06/21 09:07:29;;;;;;;5.57;4.22;;;;;;;35.28;38.37;101364.97;4972296;28;20031;-64
2023/06/21 09:09:56;;;;;;;6.35;3.90;;;;;;;35.05;38.14;101366.34;4956428;28;20490;-62
2023/06/21 09:12:22;;;;;;;6.47;3.45;;;;;;;34.93;38.78;101374.13;4972179;28;20034;-61
2023/06/21 09:14:48;;;;;;;6.10;3.55;;;;;;;35.22;37.46;101366.09;4954675;28;20028;-62
2023/06/21 09:17:13;;;;;;;5.60;3.22;;;;;;;34.96;37.82;101371.63;4957325;28;20403;-62
2023/06/21 09:19:41;;;;;;;6.50;3.47;;;;;;;34.89;38.22;101379.44;4957492;28;20031;-62
2023/06/21 09:22:06;;;;;;;7.05;3.67;;;;;;;35.40;37.15;101380.28;4956423;28;20027;-62
2023/06/21 09:24:32;;;;;;;5.65;4.45;;;;;;;35.84;37.10;101379.69;4972274;28;20455;-62
2023/06/21 09:26:58;;;;;;;9.10;3.97;;;;;;;35.84;37.24;101380.50;4957269;28;20034;-62
2023/06/21 09:29:23;;;;;;;5.57;4.00;;;;;;;36.47;36.28;101378.03;4940204;28;20016;-63
2023/06/21 09:31:49;;;;;;;4.88;3.20;;;;;;;36.42;35.80;101380.84;4972846;28;20035;-64
2023/06/21 09:34:15;;;;;;;4.82;3.65;;;;;;;36.15;36.33;101382.13;4957275;28;20030;-62
2023/06/21 09:36:40;;;;;;;4.57;3.05;;;;;;;36.32;36.32;101380.91;4972078;28;20482;-63
2023/06/21 09:39:10;;;;;;;4.75;3.08;;;;;;;36.29;35.88;101389.84;4957109;28;20046;-62
2023/06/21 09:41:36;;;;;;;4.75;3.83;;;;;;;36.31;36.42;101396.81;4955974;28;20035;-62
2023/06/21 09:44:02;;;;;;;6.63;3.25;;;;;;;36.31;35.93;101396.81;4955751;28;20475;-64
2023/06/21 09:46:27;;;;;;;4.03;3.25;;;;;;;36.09;35.82;101394.41;4955821;28;20086;-62
2023/06/21 09:48:53;;;;;;;6.80;3.72;;;;;;;35.80;36.43;101396.13;4956794;28;20035;-62
2023/06/21 09:51:23;;;;;;;4.25;3.47;;;;;;;35.61;36.08;101407.06;4956716;28;20059;-62
2023/06/21 09:53:50;;;;;;;5.80;3.90;;;;;;;35.92;35.74;101409.78;4955629;28;20031;-62
2023/06/21 09:56:17;;;;;;;6.68;2.95;;;;;;;36.24;34.42;101412.22;4955646;28;20402;-62
2023/06/21 09:58:43;;;;;;;6.05;3.10;;;;;;;36.50;34.68;101416.56;4939817;29;20447;-62
2023/06/21 10:01:09;;;;;;;7.35;3.55;;;;;;;36.48;35.15;101416.00;4956755;28;20032;-63
2023/06/21 10:03:35;;;;;;;5.47;3.53;;;;;;;36.37;35.05;101428.34;4955488;28;20407;-62
2023/06/21 10:06:02;;;;;;;28.60;26.92;;;;;;;36.53;34.76;101435.53;4955422;28;20508;-62
2023/06/21 10:08:31;;;;;;;43.17;40.97;;;;;;;37.74;33.20;101426.28;4971441;28;20027;-62
2023/06/21 10:10:57;;;;;;;6.82;3.85;;;;;;;39.19;31.81;101424.69;4939262;29;20038;-62
2023/06/21 10:13:29;;;;;;;5.75;3.33;;;;;;;40.74;30.30;101422.78;4956141;28;20047;-62
2023/06/21 10:15:56;;;;;;;3.25;2.95;;;;;;;39.65;31.33;101427.56;4955018;28;20506;-62
2023/06/21 10:18:21;;;;;;;3.63;2.17;;;;;;;38.99;32.30;101437.06;4956228;28;20054;-62
2023/06/21 10:20:52;;;;;;;2.30;2.10;;;;;;;38.49;31.51;101443.38;4971098;28;20035;-61
2023/06/21 10:23:18;;;;;;;4.05;2.13;;;;;;;37.90;32.08;101441.81;4955018;28;20032;-62
2023/06/21 10:25:44;;;;;;;2.72;2.38;;;;;;;37.50;33.00;101444.97;4956027;28;20031;-63
2023/06/21 10:28:14;;;;;;;5.55;2.40;;;;;;;37.43;32.73;101447.28;4955632;28;20190;-63
2023/06/21 10:30:42;;;;;;;3.83;2.75;;;;;;;37.54;32.77;101449.69;4955328;28;20043;-62
2023/06/21 10:33:08;;;;;;;2.90;2.30;;;;;;;38.18;31.58;101449.31;4955842;28;20043;-62
2023/06/21 10:35:34;;;;;;;5.55;3.10;;;;;;;38.79;31.14;101442.97;4954584;28;20479;-62
2023/06/21 10:38:11;;;;;;;4.82;2.15;;;;;;;39.01;31.19;101446.00;4934731;28;20059;-62
2023/06/21 10:40:37;;;;;;;2.50;2.13;;;;;;;39.01;31.23;101440.38;4947955;28;20050;-62
2023/06/21 10:43:03;;;;;;;3.83;2.80;;;;;;;39.48;30.80;101440.19;4955762;28;20039;-63
2023/06/21 10:45:30;;;;;;;3.90;2.03;;;;;;;38.98;30.35;101441.00;4954539;28;20058;-62
2023/06/21 10:47:56;;;;;;;3.97;2.50;;;;;;;39.15;30.09;101435.66;4954889;28;20035;-62
2023/06/21 10:50:24;;;;;;;3.42;2.83;;;;;;;39.89;30.14;101439.47;4954912;28;20043;-63
2023/06/21 10:52:57;;;;;;;3.63;2.55;;;;;;;40.48;29.13;101430.13;4954683;28;20110;-62
2023/06/21 10:55:23;;;;;;;2.50;2.30;;;;;;;40.87;29.31;101440.78;4954371;28;20384;-62
2023/06/21 10:57:53;;;;;;;2.88;2.25;;;;;;;40.90;29.32;101437.34;4954255;28;20027;-63
2023/06/21 11:00:19;;;;;;;7.20;2.90;;;;;;;40.59;29.91;101429.63;4954255;28;20042;-62
2023/06/21 11:02:47;;;;;;;3.25;2.20;;;;;;;40.89;29.13;101435.66;4954495;28;20038;-63
2023/06/21 11:05:19;;;;;;;2.33;2.10;;;;;;;40.20;29.82;101434.94;4954217;28;20040;-62
2023/06/21 11:07:54;;;;;;;3.67;2.40;;;;;;;40.09;29.60;101439.09;4954145;28;20031;-61
2023/06/21 11:10:29;;;;;;;3.38;1.92;;;;;;;40.68;28.23;101430.50;4954103;28;20078;-62
2023/06/21 11:12:56;;;;;;;3.65;2.15;;;;;;;41.25;27.93;101442.13;4955354;28;20109;-63
2023/06/21 11:15:24;;;;;;;2.45;2.00;;;;;;;41.61;27.73;101436.41;4953993;28;20085;-63
2023/06/21 11:17:58;;;;;;;3.30;2.08;;;;;;;42.00;27.42;101435.66;4953956;28;20522;-61
2023/06/21 11:20:24;;;;;;;6.30;2.38;;;;;;;42.33;27.07;101434.13;4937928;28;20077;-61